Time;durP1;ratioP1;P1;durP2;ratioP2;P2;SDS_P1;SDS_P2;PMS_P1;PMS_P2;Temp;Humidity;BMP_temperature;BMP_pressure;BME280_temperature;BME280_humidity;BME280_pressure;Samples;Min_cycle;Max_cycle;Signal;HPM_P1;HPM_P2
2021/04/10 00:01:31;;;;;;;21.47;14.27;;;9.60;26.00;;;;;;5094126;28;20189;-69
2021/04/10 00:03:56;;;;;;;18.40;13.23;;;9.60;1.00;;;;;;5094207;28;20226;-69
2021/04/10 00:06:22;;;;;;;20.77;14.20;;;9.70;99.90;;;;;;5093934;28;20493;-69
2021/04/10 00:08:48;;;;;;;21.17;13.50;;;9.70;99.90;;;;;;5094067;28;20183;-70
2021/04/10 00:11:13;;;;;;;15.40;12.77;;;9.60;99.90;;;;;;5094284;28;20178;-70
2021/04/10 00:13:39;;;;;;;14.40;12.40;;;9.60;62.50;;;;;;5093857;28;20457;-69
2021/04/10 00:16:05;;;;;;;16.70;13.17;;;9.60;99.90;;;;;;5093912;28;20640;-69
2021/04/10 00:18:30;;;;;;;20.50;12.87;;;9.70;1.00;;;;;;5093846;28;20250;-69
2021/04/10 00:20:56;;;;;;;17.73;13.40;;;9.60;1.00;;;;;;5094290;28;20496;-70
2021/04/10 00:23:22;;;;;;;16.60;14.10;;;9.60;24.00;;;;;;5093723;28;20190;-70
2021/04/10 00:25:48;;;;;;;19.00;15.13;;;9.60;99.90;;;;;;5093829;28;20199;-70
2021/04/10 00:28:13;;;;;;;17.57;14.43;;;9.60;99.90;;;;;;5093687;28;20492;-70
2021/04/10 00:30:39;;;;;;;17.43;14.70;;;9.60;97.50;;;;;;5093960;28;20179;-69
2021/04/10 00:33:04;;;;;;;20.27;14.37;;;9.60;1.00;;;;;;5093939;28;20560;-69
2021/04/10 00:35:30;;;;;;;17.80;14.37;;;9.60;1.00;;;;;;5093522;28;20171;-70
2021/04/10 00:37:57;;;;;;;20.73;15.50;;;9.60;99.90;;;;;;5093381;28;20537;-70
2021/04/10 00:40:22;;;;;;;19.70;16.33;;;9.50;1.00;;;;;;5093632;28;20388;-70
2021/04/10 00:42:48;;;;;;;18.90;14.40;;;9.50;99.90;;;;;;5093746;28;20512;-70
2021/04/10 00:45:13;;;;;;;22.47;15.80;;;9.50;99.90;;;;;;5094212;28;20234;-70
2021/04/10 00:47:39;;;;;;;20.10;15.80;;;9.40;99.90;;;;;;5093586;28;20176;-70
2021/04/10 00:50:05;;;;;;;21.07;16.57;;;9.30;99.90;;;;;;5093899;28;20259;-69
2021/04/10 00:52:33;;;;;;;18.03;15.47;;;9.40;1.00;;;;;;5093184;28;20199;-70
2021/04/10 00:55:01;;;;;;;18.50;15.30;;;9.50;1.00;;;;;;5093137;28;20847;-69
2021/04/10 00:57:26;;;;;;;22.43;15.93;;;9.40;99.90;;;;;;5093182;28;20406;-69
2021/04/10 00:59:52;;;;;;;21.50;16.77;;;9.50;1.00;;;;;;5093201;28;20417;-69
2021/04/10 01:02:18;;;;;;;17.90;15.83;;;9.50;1.00;;;;;;5093121;28;20167;-70
2021/04/10 01:04:44;;;;;;;21.80;16.70;;;9.40;1.00;;;;;;5093160;28;20261;-69
2021/04/10 01:07:10;;;;;;;19.60;16.20;;;9.30;99.90;;;;;;5091498;28;20449;-69
2021/04/10 01:09:36;;;;;;;28.63;17.73;;;9.30;99.90;;;;;;5093388;28;20178;-70
2021/04/10 01:12:23;;;;;;;20.40;16.00;;;9.30;1.00;;;;;;5092965;28;20512;-70
2021/04/10 01:15:20;;;;;;;19.50;15.60;;;9.30;99.90;;;;;;5093059;28;20447;-70
2021/04/10 01:17:54;;;;;;;21.40;16.40;;;9.30;1.00;;;;;;5020789;28;20488;-71
2021/04/10 01:20:49;;;;;;;20.47;16.30;;;9.30;7.20;;;;;;5092937;28;20417;-70
2021/04/10 01:23:47;;;;;;;24.17;18.17;;;9.20;99.90;;;;;;5093491;28;20526;-70
2021/04/10 01:26:46;;;;;;;18.57;16.00;;;9.20;99.90;;;;;;5092785;28;20437;-70
2021/04/10 01:29:16;;;;;;;21.43;17.43;;;9.10;1.00;;;;;;5093073;28;20440;-70
2021/04/10 01:31:45;;;;;;;21.57;17.13;;;9.10;1.00;;;;;;5092960;28;20437;-70
2021/04/10 01:34:16;;;;;;;20.70;17.93;;;9.20;14.20;;;;;;5092705;28;20441;-70
2021/04/10 01:36:44;;;;;;;19.97;17.20;;;9.20;1.00;;;;;;5092816;28;20394;-70
2021/04/10 01:39:13;;;;;;;23.93;18.83;;;9.30;1.00;;;;;;5092669;28;20408;-70
2021/04/10 01:41:46;;;;;;;23.10;18.03;;;9.20;1.00;;;;;;5092655;28;20414;-70
2021/04/10 01:44:15;;;;;;;22.30;18.83;;;9.10;99.90;;;;;;5092784;28;20425;-70
2021/04/10 01:46:41;;;;;;;23.60;18.83;;;9.00;99.90;;;;;;5093159;28;20445;-70
2021/04/10 01:49:08;;;;;;;24.93;19.67;;;9.10;99.90;;;;;;5092561;28;20917;-70
2021/04/10 01:51:35;;;;;;;24.97;18.40;;;9.00;99.90;;;;;;5092882;28;20782;-70
2021/04/10 01:54:02;;;;;;;24.37;17.60;;;9.10;99.90;;;;;;5092552;28;20428;-70
2021/04/10 01:56:30;;;;;;;21.10;17.90;;;9.20;99.90;;;;;;5092792;28;20492;-70
2021/04/10 01:58:56;;;;;;;22.47;19.43;;;9.10;99.90;;;;;;5092431;28;20441;-70
2021/04/10 02:01:25;;;;;;;23.30;19.13;;;9.00;99.90;;;;;;5092757;28;20770;-70
2021/04/10 02:03:51;;;;;;;25.50;19.10;;;9.00;99.90;;;;;;5092416;28;20425;-70
2021/04/10 02:06:17;;;;;;;29.80;19.80;;;9.00;99.90;;;;;;5092448;28;20454;-70
2021/04/10 02:08:45;;;;;;;19.30;16.93;;;9.10;99.90;;;;;;5092388;28;20427;-69
2021/04/10 02:11:13;;;;;;;22.87;18.90;;;9.10;99.90;;;;;;5093458;28;20372;-70
2021/04/10 02:13:39;;;;;;;22.53;18.10;;;9.10;99.90;;;;;;5092323;28;20433;-70
2021/04/10 02:16:06;;;;;;;26.20;18.80;;;9.10;99.90;;;;;;5092410;28;20511;-70
2021/04/10 02:18:34;;;;;;;26.60;18.57;;;9.00;99.90;;;;;;5092361;28;20454;-70
2021/04/10 02:21:08;;;;;;;29.30;17.33;;;8.90;99.90;;;;;;5092336;28;20815;-70
2021/04/10 02:23:40;;;;;;;23.87;18.10;;;8.90;99.90;;;;;;5092515;28;20767;-71
2021/04/10 02:26:07;;;;;;;23.10;18.00;;;9.10;99.90;;;;;;5092242;28;20521;-70
2021/04/10 02:28:33;;;;;;;23.17;18.73;;;9.20;99.90;;;;;;5092341;28;20774;-70
2021/04/10 02:31:01;;;;;;;23.67;18.33;;;9.20;99.90;;;;;;5092535;28;20410;-70
2021/04/10 02:33:33;;;;;;;22.47;16.87;;;9.10;1.00;;;;;;5092195;28;20191;-70
2021/04/10 02:36:00;;;;;;;22.40;18.27;;;9.20;32.00;;;;;;5092506;28;20801;-70
2021/04/10 02:38:29;;;;;;;26.40;20.20;;;9.20;99.90;;;;;;5093862;28;20405;-70
2021/04/10 02:41:04;;;;;;;20.67;17.80;;;9.00;99.90;;;;;;5095900;28;20783;-70
2021/04/10 02:43:31;;;;;;;26.73;19.10;;;9.00;99.90;;;;;;5096031;28;20434;-70
2021/04/10 02:46:02;;;;;;;23.73;19.13;;;9.00;99.90;;;;;;5095644;28;20475;-70
2021/04/10 02:48:34;;;;;;;26.40;19.00;;;9.00;99.90;;;;;;5095923;28;20492;-70
2021/04/10 02:51:02;;;;;;;25.10;20.27;;;9.00;99.90;;;;;;5095657;28;20402;-71
2021/04/10 02:53:32;;;;;;;26.87;18.80;;;9.10;99.90;;;;;;5095565;28;20445;-70
2021/04/10 02:55:58;;;;;;;24.80;19.38;;;9.10;99.90;;;;;;5094236;28;20500;-71
2021/04/10 02:58:27;;;;;;;21.90;17.80;;;9.00;99.90;;;;;;5095496;28;20644;-70
2021/04/10 03:00:56;;;;;;;26.20;19.53;;;9.00;99.90;;;;;;5096003;28;20420;-70
2021/04/10 03:03:23;;;;;;;28.57;20.00;;;9.00;99.90;;;;;;5095798;28;20970;-70
2021/04/10 03:05:49;;;;;;;29.13;21.17;;;8.90;1.00;;;;;;5095569;28;20814;-70
2021/04/10 03:08:17;;;;;;;26.27;19.37;;;8.90;1.00;;;;;;5095214;28;20524;-70
2021/04/10 03:10:49;;;;;;;25.20;20.43;;;9.00;1.00;;;;;;5095332;28;20396;-70
2021/04/10 03:13:16;;;;;;;30.73;19.60;;;8.90;1.00;;;;;;5095503;28;20906;-70
2021/04/10 03:15:43;;;;;;;32.43;19.43;;;8.90;1.00;;;;;;5095527;28;20412;-70
2021/04/10 03:18:11;;;;;;;26.73;20.40;;;9.00;1.00;;;;;;5095247;28;20413;-70
2021/04/10 03:20:37;;;;;;;28.67;20.57;;;9.00;1.00;;;;;;5095172;28;20498;-70
2021/04/10 03:23:04;;;;;;;27.13;20.67;;;9.10;1.00;;;;;;5094924;28;20862;-70
2021/04/10 03:25:29;;;;;;;25.73;20.23;;;9.10;1.00;;;;;;5094947;28;20445;-70
2021/04/10 03:27:55;;;;;;;28.27;20.23;;;9.10;1.00;;;;;;5094978;28;20164;-70
2021/04/10 03:30:21;;;;;;;31.07;21.30;;;9.20;1.00;;;;;;5093626;28;20558;-70
2021/04/10 03:32:48;;;;;;;28.83;20.60;;;9.10;1.00;;;;;;5094697;28;20182;-70
2021/04/10 03:35:15;;;;;;;29.20;21.50;;;9.10;1.00;;;;;;5094786;28;20412;-70
2021/04/10 03:37:41;;;;;;;27.37;22.37;;;9.10;99.90;;;;;;5094823;28;20772;-70
2021/04/10 03:40:07;;;;;;;25.10;20.37;;;9.00;99.90;;;;;;5094853;28;20407;-70
2021/04/10 03:42:44;;;;;;;30.83;21.47;;;9.10;99.90;;;;;;5094890;28;20460;-70
2021/04/10 03:45:12;;;;;;;26.87;22.53;;;9.20;1.00;;;;;;5094760;28;20517;-70
2021/04/10 03:47:37;;;;;;;26.03;21.07;;;9.20;1.00;;;;;;5094807;28;20394;-70
2021/04/10 03:50:05;;;;;;;25.60;21.13;;;9.10;1.00;;;;;;5094007;28;20403;-70
2021/04/10 03:52:30;;;;;;;29.93;22.60;;;8.90;1.00;;;;;;5094486;28;20163;-71
2021/04/10 03:54:56;;;;;;;30.57;23.40;;;8.90;34.30;;;;;;5094445;28;20431;-70
2021/04/10 03:57:21;;;;;;;29.07;23.13;;;8.90;99.90;;;;;;5094493;28;20168;-70
2021/04/10 03:59:48;;;;;;;32.07;23.60;;;9.00;99.90;;;;;;5094224;28;20171;-70
2021/04/10 04:02:14;;;;;;;29.73;21.23;;;9.00;99.90;;;;;;5094255;28;20171;-69
2021/04/10 04:04:39;;;;;;;29.80;22.47;;;8.80;1.00;;;;;;5094332;28;20751;-70
2021/04/10 04:07:05;;;;;;;28.77;21.73;;;8.90;1.00;;;;;;5094065;28;20539;-70
2021/04/10 04:09:30;;;;;;;34.67;24.07;;;9.00;1.00;;;;;;5094123;28;20643;-70
2021/04/10 04:11:56;;;;;;;28.40;22.50;;;9.00;1.00;;;;;;5094155;28;20171;-70
2021/04/10 04:14:21;;;;;;;35.27;21.97;;;9.10;1.00;;;;;;5094140;28;20249;-70
2021/04/10 04:16:47;;;;;;;28.67;21.40;;;9.10;1.00;;;;;;5094705;28;20187;-70
2021/04/10 04:19:15;;;;;;;28.33;20.67;;;9.10;99.90;;;;;;5093955;28;20228;-70
2021/04/10 04:21:40;;;;;;;34.03;22.53;;;9.10;99.90;;;;;;5093931;28;20220;-70
2021/04/10 04:24:06;;;;;;;28.67;21.10;;;9.10;99.90;;;;;;5093788;28;20433;-70
2021/04/10 04:26:32;;;;;;;31.07;23.60;;;9.10;99.90;;;;;;5093981;28;20195;-70
2021/04/10 04:28:57;;;;;;;29.10;21.37;;;9.10;99.90;;;;;;5092504;28;20421;-70
2021/04/10 04:31:23;;;;;;;28.87;19.43;;;9.00;99.90;;;;;;5093764;28;20239;-70
2021/04/10 04:33:48;;;;;;;29.60;23.10;;;9.00;99.90;;;;;;5093586;28;20695;-69
2021/04/10 04:36:14;;;;;;;32.43;23.73;;;9.20;99.90;;;;;;5093677;28;20214;-70
2021/04/10 04:38:40;;;;;;;25.77;20.73;;;9.10;54.80;;;;;;5093813;28;20179;-70
2021/04/10 04:41:05;;;;;;;30.03;21.80;;;9.00;99.90;;;;;;5093623;28;20167;-70
2021/04/10 04:43:31;;;;;;;25.63;21.53;;;8.90;96.50;;;;;;5093549;28;20686;-70
2021/04/10 04:45:56;;;;;;;29.40;21.43;;;8.90;99.90;;;;;;5092313;28;20328;-70
2021/04/10 04:48:22;;;;;;;29.47;23.27;;;8.90;99.90;;;;;;5093395;28;20170;-70
2021/04/10 04:50:47;;;;;;;33.20;23.93;;;8.80;99.90;;;;;;5093932;28;20170;-70
2021/04/10 04:53:13;;;;;;;28.67;22.63;;;8.80;1.00;;;;;;5093518;28;20190;-70
2021/04/10 04:55:40;;;;;;;35.27;25.43;;;8.80;1.00;;;;;;5093293;28;20603;-70
2021/04/10 04:58:05;;;;;;;31.00;22.90;;;8.70;27.90;;;;;;5093502;28;20229;-70
2021/04/10 05:00:31;;;;;;;30.60;23.30;;;8.70;99.90;;;;;;5093049;28;20399;-70
2021/04/10 05:02:57;;;;;;;34.37;25.27;;;8.60;99.90;;;;;;5092225;28;20605;-70
2021/04/10 05:05:22;;;;;;;39.97;27.47;;;8.70;99.90;;;;;;5093554;28;20199;-69
2021/04/10 05:07:48;;;;;;;30.80;24.10;;;9.00;99.90;;;;;;5092937;28;20603;-69
2021/04/10 05:10:13;;;;;;;32.23;25.60;;;9.00;99.90;;;;;;5093299;28;20635;-69
2021/04/10 05:12:39;;;;;;;35.87;25.93;;;8.90;1.00;;;;;;5093176;28;20396;-69
2021/04/10 05:15:06;;;;;;;37.63;27.17;;;8.80;1.00;;;;;;5093229;28;20183;-69
2021/04/10 05:17:32;;;;;;;31.00;22.73;;;8.90;1.00;;;;;;5093078;28;20540;-69
2021/04/10 05:19:57;;;;;;;41.40;26.30;;;9.00;1.00;;;;;;5092949;28;20406;-69
2021/04/10 05:22:23;;;;;;;32.97;25.97;;;9.00;1.00;;;;;;5092922;28;20173;-69
2021/04/10 05:24:48;;;;;;;35.10;26.67;;;8.80;1.00;;;;;;5093067;28;20719;-69
2021/04/10 05:27:14;;;;;;;37.77;25.50;;;8.90;1.00;;;;;;5092980;28;20546;-69
2021/04/10 05:29:39;;;;;;;31.63;24.40;;;9.10;1.00;;;;;;5092736;28;20167;-69
2021/04/10 05:32:05;;;;;;;36.17;25.93;;;9.10;1.00;;;;;;5093306;28;20212;-69
2021/04/10 05:34:31;;;;;;;33.50;25.10;;;9.00;1.00;;;;;;5092720;28;20183;-69
2021/04/10 05:36:56;;;;;;;35.37;24.97;;;9.10;1.00;;;;;;5092801;28;20416;-69
2021/04/10 05:39:22;;;;;;;35.20;26.10;;;8.90;1.00;;;;;;5092937;28;20629;-69
2021/04/10 05:41:48;;;;;;;34.33;26.40;;;9.00;1.00;;;;;;5092630;28;20211;-69
2021/04/10 05:44:13;;;;;;;34.97;25.50;;;9.00;1.00;;;;;;5092543;28;20209;-68
2021/04/10 05:46:39;;;;;;;38.87;27.70;;;9.10;1.00;;;;;;5092491;28;20198;-69
2021/04/10 05:49:04;;;;;;;37.83;26.57;;;9.10;1.00;;;;;;5092496;28;20168;-69
2021/04/10 05:51:30;;;;;;;38.00;26.87;;;9.00;1.00;;;;;;5092536;28;20167;-69
2021/04/10 05:53:55;;;;;;;33.03;26.00;;;9.10;1.00;;;;;;5092410;28;20183;-69
2021/04/10 05:56:21;;;;;;;34.77;25.17;;;9.10;99.90;;;;;;5092413;28;20174;-69
2021/04/10 05:58:47;;;;;;;36.47;26.63;;;9.00;99.90;;;;;;5092393;28;20168;-70
2021/04/10 06:01:12;;;;;;;37.70;25.93;;;9.10;99.90;;;;;;5092498;28;20225;-70
2021/04/10 06:03:38;;;;;;;41.30;27.00;;;9.00;99.90;;;;;;5092279;28;20486;-70
2021/04/10 06:06:03;;;;;;;34.33;25.67;;;9.00;1.00;;;;;;5092183;28;20202;-70
2021/04/10 06:08:29;;;;;;;35.63;27.20;;;9.10;1.00;;;;;;5092230;28;20266;-70
2021/04/10 06:10:55;;;;;;;38.17;26.80;;;9.20;1.00;;;;;;5092302;28;20636;-70
2021/04/10 06:13:20;;;;;;;35.47;24.90;;;9.20;99.90;;;;;;5093670;28;20190;-70
2021/04/10 06:15:46;;;;;;;35.20;25.27;;;9.20;99.90;;;;;;5096462;28;20183;-70
2021/04/10 06:18:12;;;;;;;38.17;26.27;;;9.10;99.90;;;;;;5096170;28;20558;-70
2021/04/10 06:20:38;;;;;;;35.00;26.70;;;9.20;99.90;;;;;;5096341;28;20175;-70
2021/04/10 06:23:04;;;;;;;36.43;26.10;;;9.20;1.00;;;;;;5096585;28;20421;-69
2021/04/10 06:25:29;;;;;;;35.43;25.47;;;9.30;1.00;;;;;;5096171;28;20205;-70
2021/04/10 06:27:55;;;;;;;37.17;27.20;;;9.30;1.00;;;;;;5094874;28;20425;-70
2021/04/10 06:30:21;;;;;;;35.03;25.80;;;9.20;1.00;;;;;;5096281;28;20545;-70
2021/04/10 06:32:47;;;;;;;32.63;23.97;;;9.40;61.80;;;;;;5096171;28;20353;-70
2021/04/10 06:35:12;;;;;;;33.23;25.80;;;9.50;99.90;;;;;;5096141;28;20906;-70
2021/04/10 06:37:38;;;;;;;34.63;24.97;;;9.30;1.00;;;;;;5096056;28;20214;-70
2021/04/10 06:40:05;;;;;;;35.27;24.10;;;9.30;99.90;;;;;;5096031;28;20171;-70
2021/04/10 06:42:31;;;;;;;31.00;23.87;;;9.30;17.90;;;;;;5095658;28;20169;-70
2021/04/10 06:44:58;;;;;;;32.40;25.27;;;9.40;99.90;;;;;;5095623;28;20854;-70
2021/04/10 06:47:26;;;;;;;32.60;24.10;;;9.40;1.00;;;;;;5096024;28;20775;-70
2021/04/10 06:49:52;;;;;;;33.43;22.97;;;9.60;1.00;;;;;;5095872;28;20398;-70
2021/04/10 06:52:21;;;;;;;38.70;23.83;;;9.60;1.00;;;;;;5095655;28;20774;-70
2021/04/10 06:54:54;;;;;;;33.30;24.80;;;9.60;1.00;;;;;;5095505;28;20497;-70
2021/04/10 06:57:22;;;;;;;35.03;23.10;;;9.70;99.90;;;;;;5095604;28;20390;-70
2021/04/10 07:00:08;;;;;;;34.83;22.53;;;9.70;1.00;;;;;;5095264;28;20454;-69
2021/04/10 07:02:35;;;;;;;28.00;22.83;;;9.80;25.50;;;;;;5095543;28;20433;-70
2021/04/10 07:05:00;;;;;;;34.83;25.20;;;9.90;99.90;;;;;;5095322;28;20812;-70
2021/04/10 07:07:27;;;;;;;31.87;23.33;;;9.90;1.00;;;;;;5095330;28;20425;-70
2021/04/10 07:09:53;;;;;;;32.10;23.87;;;10.00;99.90;;;;;;5095526;28;20205;-70
2021/04/10 07:12:20;;;;;;;32.00;24.20;;;10.00;1.00;;;;;;5096373;28;20754;-70
2021/04/10 07:14:46;;;;;;;34.43;24.03;;;10.00;11.10;;;;;;5096150;28;20484;-70
2021/04/10 07:17:13;;;;;;;36.50;24.07;;;10.20;1.00;;;;;;5096489;28;20430;-70
2021/04/10 07:19:39;;;;;;;30.57;21.83;;;10.10;1.00;;;;;;5096329;28;20174;-70
2021/04/10 07:22:12;;;;;;;31.13;20.90;;;10.10;99.90;;;;;;5095003;28;20401;-70
2021/04/10 07:24:48;;;;;;;27.07;22.53;;;10.20;99.90;;;;;;5094471;28;20480;-70
2021/04/10 07:27:21;;;;;;;30.63;21.27;;;10.30;99.90;;;;;;5095123;28;20802;-70
2021/04/10 07:29:50;;;;;;;35.33;22.10;;;10.40;32.10;;;;;;5095125;28;20819;-70
2021/04/10 07:32:36;;;;;;;29.93;22.10;;;10.40;1.00;;;;;;5094967;28;20827;-70
2021/04/10 07:35:10;;;;;;;29.43;21.17;;;10.60;1.00;;;;;;5094835;28;20414;-70
2021/04/10 07:37:42;;;;;;;29.03;20.00;;;10.70;1.00;;;;;;5094982;28;20393;-70
2021/04/10 07:40:14;;;;;;;29.23;18.37;;;10.70;99.90;;;;;;5095057;28;20502;-70
2021/04/10 07:42:45;;;;;;;24.93;18.97;;;10.70;99.90;;;;;;5094998;28;20437;-70
2021/04/10 07:45:33;;;;;;;26.77;18.47;;;10.90;99.90;;;;;;5094621;28;20501;-70
2021/04/10 07:48:07;;;;;;;22.63;17.17;;;11.10;97.00;;;;;;5094650;28;20382;-70
2021/04/10 07:50:34;;;;;;;25.40;18.67;;;11.10;33.40;;;;;;5094519;28;20924;-70
2021/04/10 07:53:19;;;;;;;21.27;16.10;;;11.10;99.90;;;;;;5094654;28;20466;-70
2021/04/10 07:55:45;;;;;;;16.77;14.03;;;11.40;23.40;;;;;;5094419;28;20458;-70
2021/04/10 07:58:30;;;;;;;24.80;17.20;;;11.20;1.00;;;;;;5094682;28;20397;-70
2021/04/10 08:01:00;;;;;;;14.93;12.63;;;11.20;1.00;;;;;;5094542;28;20219;-70
2021/04/10 08:03:26;;;;;;;18.43;14.63;;;11.40;1.00;;;;;;5094191;28;20421;-71
2021/04/10 08:05:52;;;;;;;21.10;15.10;;;11.50;1.00;;;;;;5094208;28;20476;-70
2021/04/10 08:08:26;;;;;;;17.93;13.33;;;11.30;1.00;;;;;;5094046;28;20182;-70
2021/04/10 08:11:04;;;;;;;18.47;15.50;;;11.50;1.00;;;;;;5094421;28;20742;-70
2021/04/10 08:13:30;;;;;;;21.40;16.30;;;11.30;1.00;;;;;;5093468;28;20459;-70
2021/04/10 08:16:18;;;;;;;24.53;16.30;;;11.30;1.00;;;;;;5094112;28;20413;-70
2021/04/10 08:18:48;;;;;;;16.53;11.90;;;11.20;1.00;;;;;;5093845;28;20741;-70
2021/04/10 08:21:15;;;;;;;13.80;12.30;;;11.40;1.00;;;;;;5093724;28;20433;-70
2021/04/10 08:23:41;;;;;;;19.30;15.00;;;11.40;1.00;;;;;;5093917;28;20421;-70
2021/04/10 08:26:07;;;;;;;15.30;11.57;;;11.70;1.00;;;;;;5093547;28;20475;-70
2021/04/10 08:28:36;;;;;;;14.37;9.73;;;11.40;1.00;;;;;;5093691;28;20397;-70
2021/04/10 08:31:02;;;;;;;12.93;9.87;;;11.30;1.00;;;;;;5093735;28;20424;-70
2021/04/10 08:33:29;;;;;;;13.30;10.77;;;11.40;1.00;;;;;;5093550;28;20418;-70
2021/04/10 08:35:57;;;;;;;17.00;11.40;;;11.60;1.00;;;;;;5092305;28;20421;-71
2021/04/10 08:38:23;;;;;;;15.93;11.20;;;11.50;1.00;;;;;;5093961;28;20465;-70
2021/04/10 08:40:52;;;;;;;17.23;12.13;;;11.50;1.00;;;;;;5093822;28;20417;-70
2021/04/10 08:43:20;;;;;;;14.80;10.07;;;11.30;1.00;;;;;;5093076;28;20430;-70
2021/04/10 08:45:51;;;;;;;13.37;10.20;;;11.50;1.00;;;;;;5093780;28;20445;-70
2021/04/10 08:48:20;;;;;;;15.80;11.77;;;11.80;1.00;;;;;;5093588;28;20378;-70
2021/04/10 08:50:46;;;;;;;14.50;9.90;;;11.70;1.00;;;;;;5092247;28;20478;-71
2021/04/10 08:53:18;;;;;;;16.67;11.17;;;11.80;1.00;;;;;;5093659;28;20417;-68
2021/04/10 08:55:45;;;;;;;11.17;9.53;;;11.40;1.00;;;;;;5093669;28;20385;-70
2021/04/10 08:58:40;;;;;;;13.60;10.60;;;11.70;1.00;;;;;;5093677;28;20883;-69
2021/04/10 09:01:16;;;;;;;15.10;11.80;;;12.00;1.00;;;;;;5091655;28;20416;-69
2021/04/10 09:03:45;;;;;;;17.13;12.27;;;12.00;1.00;;;;;;5093347;28;20513;-69
2021/04/10 09:06:22;;;;;;;17.10;10.53;;;11.90;1.00;;;;;;5093665;28;20449;-69
2021/04/10 09:08:49;;;;;;;15.23;10.30;;;11.80;1.00;;;;;;5091540;28;20479;-69
2021/04/10 09:11:22;;;;;;;14.17;11.73;;;11.60;1.00;;;;;;5093047;28;20902;-68
2021/04/10 09:13:52;;;;;;;13.00;11.20;;;11.70;1.00;;;;;;5092984;28;20413;-69
2021/04/10 09:16:28;;;;;;;12.60;10.40;;;11.80;1.00;;;;;;5093186;28;20420;-69
2021/04/10 09:19:06;;;;;;;12.30;10.77;;;11.70;1.00;;;;;;5093201;28;20396;-69
2021/04/10 09:21:44;;;;;;;13.27;9.70;;;11.80;1.00;;;;;;5093286;28;20404;-70
2021/04/10 09:24:43;;;;;;;12.27;10.00;;;12.10;1.00;;;;;;5093326;28;20417;-70
2021/04/10 09:27:19;;;;;;;12.33;8.50;;;12.30;1.00;;;;;;5093115;28;20530;-69
2021/04/10 09:30:07;;;;;;;12.20;8.90;;;12.40;1.00;;;;;;5092897;28;20864;-69
2021/04/10 09:32:42;;;;;;;12.83;9.10;;;12.40;1.00;;;;;;5092724;28;20413;-69
2021/04/10 09:35:09;;;;;;;11.87;9.83;;;12.40;1.00;;;;;;5092637;28;20434;-70
2021/04/10 09:37:34;;;;;;;13.47;10.60;;;12.50;1.00;;;;;;5093247;28;20404;-70
2021/04/10 09:40:03;;;;;;;17.20;9.70;;;12.80;1.00;;;;;;5092564;28;20762;-70
2021/04/10 09:42:34;;;;;;;9.97;8.93;;;12.80;1.00;;;;;;5092657;28;20174;-70
2021/04/10 09:45:08;;;;;;;10.47;9.03;;;12.60;1.00;;;;;;5092560;28;20456;-70
2021/04/10 09:47:52;;;;;;;16.50;10.30;;;12.70;1.00;;;;;;5093224;28;20742;-70
2021/04/10 09:50:18;;;;;;;12.80;10.30;;;12.70;1.00;;;;;;5096846;28;20413;-70
2021/04/10 09:52:44;;;;;;;10.13;8.93;;;12.80;1.00;;;;;;5096431;28;20425;-70
2021/04/10 09:55:10;;;;;;;17.27;12.13;;;12.70;1.00;;;;;;5097183;28;20417;-70
2021/04/10 09:57:36;;;;;;;15.33;10.37;;;12.70;1.00;;;;;;5096244;28;20409;-70
2021/04/10 10:00:05;;;;;;;12.23;10.20;;;12.50;1.00;;;;;;5096764;28;20820;-70
2021/04/10 10:02:31;;;;;;;13.53;10.40;;;12.40;1.00;;;;;;5096674;28;20409;-70
2021/04/10 10:04:57;;;;;;;18.20;12.63;;;12.70;1.00;;;;;;5096529;28;20461;-70
2021/04/10 10:07:23;;;;;;;11.73;9.43;;;12.80;1.00;;;;;;5098732;28;20183;-70
2021/04/10 10:10:05;;;;;;;14.10;9.00;;;12.90;1.00;;;;;;5096125;28;20217;-70
2021/04/10 10:12:31;;;;;;;13.93;10.90;;;12.90;1.00;;;;;;5096420;28;20443;-69
2021/04/10 10:14:56;;;;;;;9.50;8.57;;;12.70;1.00;;;;;;5096288;28;20469;-70
2021/04/10 10:17:29;;;;;;;10.20;9.20;;;12.80;1.00;;;;;;5096363;28;20167;-70
2021/04/10 10:20:27;;;;;;;14.00;9.27;;;12.70;1.00;;;;;;5096133;28;20236;-70
2021/04/10 10:22:53;;;;;;;10.63;9.07;;;12.90;1.00;;;;;;5051551;28;20445;-70
2021/04/10 10:25:18;;;;;;;12.80;9.60;;;12.70;1.00;;;;;;5096616;28;20456;-70
2021/04/10 10:27:47;;;;;;;11.60;9.27;;;12.80;1.00;;;;;;5096190;28;20535;-70
2021/04/10 10:30:21;;;;;;;12.30;9.90;;;12.60;1.00;;;;;;5096037;28;20167;-70
2021/04/10 10:32:48;;;;;;;11.80;9.17;;;12.60;1.00;;;;;;5096429;28;20449;-70
2021/04/10 10:35:14;;;;;;;10.70;9.60;;;12.50;1.00;;;;;;5096069;28;20858;-70
2021/04/10 10:37:46;;;;;;;14.43;9.47;;;12.40;1.00;;;;;;5095932;28;20440;-70
2021/04/10 10:40:23;;;;;;;12.83;9.33;;;12.60;1.00;;;;;;5096372;28;20767;-70
2021/04/10 10:43:07;;;;;;;10.70;9.60;;;12.70;1.00;;;;;;5096214;28;20580;-70
2021/04/10 10:45:42;;;;;;;16.27;11.00;;;12.60;1.00;;;;;;5096328;28;20516;-70
2021/04/10 10:48:30;;;;;;;21.90;9.80;;;12.50;1.00;;;;;;5095610;28;20397;-69
2021/04/10 10:51:06;;;;;;;13.50;11.37;;;12.60;1.00;;;;;;5096094;28;20451;-70
2021/04/10 10:53:34;;;;;;;14.33;10.97;;;12.40;1.00;;;;;;5095835;28;20409;-70
2021/04/10 10:56:09;;;;;;;10.97;9.60;;;12.30;1.00;;;;;;5095303;28;20488;-71
2021/04/10 10:58:43;;;;;;;13.57;10.53;;;12.40;1.00;;;;;;5095575;28;20432;-70
2021/04/10 11:01:17;;;;;;;12.63;11.33;;;12.60;1.00;;;;;;5094943;28;20393;-70
2021/04/10 11:03:47;;;;;;;15.50;9.80;;;12.70;1.00;;;;;;5095600;28;20428;-70
2021/04/10 11:06:21;;;;;;;12.33;10.00;;;12.70;1.00;;;;;;5095395;28;20444;-70
2021/04/10 11:08:48;;;;;;;13.60;10.50;;;12.60;1.00;;;;;;5095229;28;20448;-69
2021/04/10 11:11:14;;;;;;;14.83;10.37;;;12.60;1.00;;;;;;5095376;28;20909;-70
2021/04/10 11:13:42;;;;;;;13.77;12.07;;;12.50;1.00;;;;;;5095215;28;20874;-70
2021/04/10 11:16:08;;;;;;;13.10;11.70;;;12.40;1.00;;;;;;5094894;28;20397;-69
2021/04/10 11:18:34;;;;;;;15.10;11.13;;;12.40;26.60;;;;;;5095356;28;20401;-69
2021/04/10 11:21:16;;;;;;;13.23;11.87;;;12.20;58.60;;;;;;5093628;28;20167;-69
2021/04/10 11:23:59;;;;;;;21.83;12.07;;;12.20;99.90;;;;;;5095017;28;20211;-70
2021/04/10 11:26:45;;;;;;;18.27;13.37;;;12.20;99.90;;;;;;5095169;28;20538;-70
2021/04/10 11:29:16;;;;;;;17.63;12.70;;;12.00;99.90;;;;;;5095004;28;20875;-70
2021/04/10 11:31:42;;;;;;;15.83;13.20;;;11.90;40.70;;;;;;5095134;28;20416;-70
2021/04/10 11:34:30;;;;;;;13.07;11.23;;;12.00;99.90;;;;;;5094979;28;20823;-70
2021/04/10 11:36:57;;;;;;;12.07;9.20;;;11.90;2.80;;;;;;5095580;28;20500;-69
2021/04/10 11:39:23;;;;;;;15.43;12.50;;;11.80;1.00;;;;;;5095138;28;20477;-70
2021/04/10 11:41:49;;;;;;;16.00;12.07;;;11.70;1.00;;;;;;5094784;28;20504;-69
2021/04/10 11:44:16;;;;;;;19.47;12.40;;;11.50;1.00;;;;;;5095127;28;20191;-69
2021/04/10 11:46:42;;;;;;;18.13;13.53;;;11.50;56.40;;;;;;5094833;28;20460;-70
2021/04/10 11:49:08;;;;;;;17.87;13.30;;;11.60;99.90;;;;;;5094315;28;20488;-69
2021/04/10 11:51:34;;;;;;;19.70;14.20;;;11.60;99.90;;;;;;5094739;28;20398;-69
2021/04/10 11:53:59;;;;;;;18.93;13.40;;;11.50;99.90;;;;;;5094477;28;20200;-70
2021/04/10 11:56:26;;;;;;;18.67;13.80;;;11.50;99.90;;;;;;5094628;28;20412;-69
2021/04/10 11:59:08;;;;;;;21.13;13.63;;;11.60;99.90;;;;;;5094525;28;20171;-69
2021/04/10 12:01:34;;;;;;;17.20;12.87;;;11.50;99.90;;;;;;5094687;28;20393;-69
2021/04/10 12:04:02;;;;;;;16.43;14.37;;;11.50;99.90;;;;;;5094072;28;20421;-69
2021/04/10 12:06:34;;;;;;;22.47;13.13;;;11.30;99.90;;;;;;5094121;28;20455;-69
2021/04/10 12:09:13;;;;;;;17.43;13.30;;;11.40;1.00;;;;;;5094245;28;20435;-69
2021/04/10 12:11:42;;;;;;;16.40;13.90;;;11.50;99.90;;;;;;5094180;28;20413;-69
2021/04/10 12:14:11;;;;;;;16.63;13.33;;;11.30;1.00;;;;;;5094179;28;20518;-69
2021/04/10 12:16:37;;;;;;;15.80;13.40;;;11.20;1.00;;;;;;5094241;28;20493;-69
2021/04/10 12:19:06;;;;;;;17.83;14.00;;;11.30;1.00;;;;;;5094671;28;20925;-70
2021/04/10 12:21:32;;;;;;;18.53;13.70;;;11.40;99.90;;;;;;5094332;28;20756;-70
2021/04/10 12:23:58;;;;;;;16.77;12.23;;;11.30;1.00;;;;;;5093945;28;20513;-69
2021/04/10 12:26:24;;;;;;;16.60;13.67;;;11.10;99.90;;;;;;5094171;28;20453;-69
2021/04/10 12:28:51;;;;;;;22.07;16.53;;;11.30;1.00;;;;;;5093912;28;20455;-69
2021/04/10 12:31:16;;;;;;;22.90;14.90;;;11.30;1.00;;;;;;5094140;28;20409;-69
2021/04/10 12:33:42;;;;;;;21.93;14.50;;;11.30;1.00;;;;;;5093771;28;20490;-69
2021/04/10 12:36:09;;;;;;;18.50;15.50;;;11.40;1.00;;;;;;5093846;28;20179;-70
2021/04/10 12:38:35;;;;;;;17.37;13.87;;;11.40;1.00;;;;;;5093486;28;20444;-69
2021/04/10 12:41:01;;;;;;;19.03;14.00;;;11.40;99.90;;;;;;5093713;28;20405;-70
2021/04/10 12:43:26;;;;;;;18.43;15.67;;;11.40;99.90;;;;;;5093705;28;20524;-70
2021/04/10 12:45:52;;;;;;;19.70;14.93;;;11.50;99.90;;;;;;5093445;28;20607;-70
2021/04/10 12:48:17;;;;;;;18.03;13.90;;;11.60;1.00;;;;;;5093576;28;20247;-70